Terminal Aerodrome Forecast
Issued by NWS Blacksburg, VA

Home | Current Version | Previous Version | Text Only | Print | Product List | Glossary On
Versions: 1 2 3 4 5 6 7 8 9 10 11 12 13 14 15 16 17 18 19 20 21 22 23 24 25 26 27 28 29 30 31 32 33 34 35 36 37 38 39 40 41 42
409
FTUS41 KRNK 231803 RRA
TAFBLF
TAF
KBLF 231803Z 2318/2418 05006KT 2SM -RA BR OVC004
     FM232300 34007KT 4SM -SHRA BR OVC004
     FM240400 31007G16KT 6SM -SHRA BR OVC004
     FM240900 31012G20KT 6SM -SHRA OVC008
     FM241700 30014G22KT P6SM OVC010=

USA.gov is the U.S. government's official web portal to all federal, state and local government web resources and services.